sensor_id;sensor_type;location;lat;lon;timestamp;temperature;humidity
3067;DHT22;1544;48.834;9.194;2023-05-16T00:00:11;13.50;53.40
3067;DHT22;1544;48.834;9.194;2023-05-16T00:02:47;13.50;53.50
3067;DHT22;1544;48.834;9.194;2023-05-16T00:05:23;13.50;53.70
3067;DHT22;1544;48.834;9.194;2023-05-16T00:08:00;13.50;54.20
3067;DHT22;1544;48.834;9.194;2023-05-16T00:10:36;13.50;54.80
3067;DHT22;1544;48.834;9.194;2023-05-16T00:13:12;13.50;54.90
3067;DHT22;1544;48.834;9.194;2023-05-16T00:15:48;13.50;55.20
3067;DHT22;1544;48.834;9.194;2023-05-16T00:18:24;13.50;55.20
3067;DHT22;1544;48.834;9.194;2023-05-16T00:21:00;13.50;55.30
3067;DHT22;1544;48.834;9.194;2023-05-16T00:23:36;13.50;55.60
3067;DHT22;1544;48.834;9.194;2023-05-16T00:26:13;13.50;56.00
3067;DHT22;1544;48.834;9.194;2023-05-16T00:28:49;13.50;56.50
3067;DHT22;1544;48.834;9.194;2023-05-16T00:31:25;13.50;57.10
3067;DHT22;1544;48.834;9.194;2023-05-16T00:34:01;13.40;57.40
3067;DHT22;1544;48.834;9.194;2023-05-16T00:36:37;13.40;57.60
3067;DHT22;1544;48.834;9.194;2023-05-16T00:39:13;13.40;57.80
3067;DHT22;1544;48.834;9.194;2023-05-16T00:41:48;13.30;57.80
3067;DHT22;1544;48.834;9.194;2023-05-16T00:44:24;13.30;57.90
3067;DHT22;1544;48.834;9.194;2023-05-16T00:47:01;13.20;58.10
3067;DHT22;1544;48.834;9.194;2023-05-16T00:49:38;13.20;58.40
3067;DHT22;1544;48.834;9.194;2023-05-16T00:52:14;13.20;58.90
3067;DHT22;1544;48.834;9.194;2023-05-16T00:54:51;13.10;59.20
3067;DHT22;1544;48.834;9.194;2023-05-16T00:57:27;13.10;59.90
3067;DHT22;1544;48.834;9.194;2023-05-16T01:00:06;13.00;60.30
3067;DHT22;1544;48.834;9.194;2023-05-16T01:02:45;13.00;61.10
3067;DHT22;1544;48.834;9.194;2023-05-16T01:05:22;13.00;61.80
3067;DHT22;1544;48.834;9.194;2023-05-16T01:07:58;12.90;62.10
3067;DHT22;1544;48.834;9.194;2023-05-16T01:10:52;12.90;62.90
3067;DHT22;1544;48.834;9.194;2023-05-16T01:20:30;12.80;63.50
3067;DHT22;1544;48.834;9.194;2023-05-16T01:26:31;12.80;64.90
3067;DHT22;1544;48.834;9.194;2023-05-16T01:29:08;12.80;65.20
3067;DHT22;1544;48.834;9.194;2023-05-16T01:31:44;12.80;65.80
3067;DHT22;1544;48.834;9.194;2023-05-16T01:34:20;12.70;66.00
3067;DHT22;1544;48.834;9.194;2023-05-16T01:37:15;12.70;66.10
3067;DHT22;1544;48.834;9.194;2023-05-16T01:40:11;12.70;66.50
3067;DHT22;1544;48.834;9.194;2023-05-16T01:42:54;12.60;66.70
3067;DHT22;1544;48.834;9.194;2023-05-16T01:45:35;12.60;67.20
3067;DHT22;1544;48.834;9.194;2023-05-16T01:48:20;12.60;67.40
3067;DHT22;1544;48.834;9.194;2023-05-16T01:51:00;12.60;67.90
3067;DHT22;1544;48.834;9.194;2023-05-16T01:53:38;12.60;67.70
3067;DHT22;1544;48.834;9.194;2023-05-16T01:56:15;12.60;68.10
3067;DHT22;1544;48.834;9.194;2023-05-16T01:58:52;12.60;67.70
3067;DHT22;1544;48.834;9.194;2023-05-16T02:01:29;12.60;67.90
3067;DHT22;1544;48.834;9.194;2023-05-16T02:04:05;12.60;67.70
3067;DHT22;1544;48.834;9.194;2023-05-16T02:06:43;12.60;67.60
3067;DHT22;1544;48.834;9.194;2023-05-16T02:09:19;12.60;68.00
3067;DHT22;1544;48.834;9.194;2023-05-16T02:11:55;12.50;68.50
3067;DHT22;1544;48.834;9.194;2023-05-16T02:14:32;12.60;68.10
3067;DHT22;1544;48.834;9.194;2023-05-16T02:17:08;12.50;68.30
3067;DHT22;1544;48.834;9.194;2023-05-16T02:19:44;12.50;68.40
3067;DHT22;1544;48.834;9.194;2023-05-16T02:22:20;12.40;68.60
3067;DHT22;1544;48.834;9.194;2023-05-16T02:24:56;12.40;69.90
3067;DHT22;1544;48.834;9.194;2023-05-16T02:27:32;12.40;70.00
3067;DHT22;1544;48.834;9.194;2023-05-16T02:30:09;12.40;70.10
3067;DHT22;1544;48.834;9.194;2023-05-16T02:32:46;12.40;70.10
3067;DHT22;1544;48.834;9.194;2023-05-16T02:35:24;12.40;70.20
3067;DHT22;1544;48.834;9.194;2023-05-16T02:38:01;12.40;70.00
3067;DHT22;1544;48.834;9.194;2023-05-16T02:40:36;12.30;70.80
3067;DHT22;1544;48.834;9.194;2023-05-16T02:43:13;12.40;70.80
3067;DHT22;1544;48.834;9.194;2023-05-16T02:45:50;12.40;70.50
3067;DHT22;1544;48.834;9.194;2023-05-16T02:48:26;12.40;70.40
3067;DHT22;1544;48.834;9.194;2023-05-16T02:51:02;12.40;70.80
3067;DHT22;1544;48.834;9.194;2023-05-16T02:53:38;12.40;70.20
3067;DHT22;1544;48.834;9.194;2023-05-16T02:56:15;12.40;70.10
3067;DHT22;1544;48.834;9.194;2023-05-16T02:58:53;12.40;70.00
3067;DHT22;1544;48.834;9.194;2023-05-16T03:01:30;12.40;70.20
3067;DHT22;1544;48.834;9.194;2023-05-16T03:04:06;12.40;69.90
3067;DHT22;1544;48.834;9.194;2023-05-16T03:06:42;12.40;69.70
3067;DHT22;1544;48.834;9.194;2023-05-16T03:09:18;12.40;69.30
3067;DHT22;1544;48.834;9.194;2023-05-16T03:11:54;12.40;69.00
3067;DHT22;1544;48.834;9.194;2023-05-16T03:14:30;12.40;69.80
3067;DHT22;1544;48.834;9.194;2023-05-16T03:17:06;12.40;69.60
3067;DHT22;1544;48.834;9.194;2023-05-16T03:19:42;12.40;69.70
3067;DHT22;1544;48.834;9.194;2023-05-16T03:22:20;12.40;69.80
3067;DHT22;1544;48.834;9.194;2023-05-16T03:24:56;12.40;70.10
3067;DHT22;1544;48.834;9.194;2023-05-16T03:27:32;12.40;70.60
3067;DHT22;1544;48.834;9.194;2023-05-16T03:30:08;12.30;70.70
3067;DHT22;1544;48.834;9.194;2023-05-16T03:32:45;12.30;70.90
3067;DHT22;1544;48.834;9.194;2023-05-16T03:35:21;12.40;71.00
3067;DHT22;1544;48.834;9.194;2023-05-16T03:37:57;12.40;70.80
3067;DHT22;1544;48.834;9.194;2023-05-16T03:40:34;12.40;71.60
3067;DHT22;1544;48.834;9.194;2023-05-16T03:43:10;12.40;71.80
3067;DHT22;1544;48.834;9.194;2023-05-16T03:45:46;12.40;72.00
3067;DHT22;1544;48.834;9.194;2023-05-16T03:48:22;12.30;72.50
3067;DHT22;1544;48.834;9.194;2023-05-16T03:50:58;12.30;72.90
3067;DHT22;1544;48.834;9.194;2023-05-16T03:53:34;12.40;72.90
3067;DHT22;1544;48.834;9.194;2023-05-16T03:56:11;12.40;73.30
3067;DHT22;1544;48.834;9.194;2023-05-16T03:58:47;12.40;73.20
3067;DHT22;1544;48.834;9.194;2023-05-16T04:01:23;12.40;73.50
3067;DHT22;1544;48.834;9.194;2023-05-16T04:03:59;12.40;73.60
3067;DHT22;1544;48.834;9.194;2023-05-16T04:06:35;12.40;73.40
3067;DHT22;1544;48.834;9.194;2023-05-16T04:09:11;12.50;73.20
3067;DHT22;1544;48.834;9.194;2023-05-16T04:11:47;12.50;73.10
3067;DHT22;1544;48.834;9.194;2023-05-16T04:14:23;12.50;73.40
3067;DHT22;1544;48.834;9.194;2023-05-16T04:16:59;12.50;73.00
3067;DHT22;1544;48.834;9.194;2023-05-16T04:19:35;12.50;72.70
3067;DHT22;1544;48.834;9.194;2023-05-16T04:22:11;12.50;72.80
3067;DHT22;1544;48.834;9.194;2023-05-16T04:24:48;12.50;72.60
3067;DHT22;1544;48.834;9.194;2023-05-16T04:27:24;12.60;72.70
3067;DHT22;1544;48.834;9.194;2023-05-16T04:30:01;12.60;72.20
3067;DHT22;1544;48.834;9.194;2023-05-16T04:32:37;12.70;72.20
3067;DHT22;1544;48.834;9.194;2023-05-16T04:35:13;12.70;72.10
3067;DHT22;1544;48.834;9.194;2023-05-16T04:37:49;12.70;72.30
3067;DHT22;1544;48.834;9.194;2023-05-16T04:40:25;12.70;71.80
3067;DHT22;1544;48.834;9.194;2023-05-16T04:43:02;12.80;71.60
3067;DHT22;1544;48.834;9.194;2023-05-16T04:45:38;12.80;71.10
3067;DHT22;1544;48.834;9.194;2023-05-16T04:48:14;12.80;71.00
3067;DHT22;1544;48.834;9.194;2023-05-16T04:50:50;12.90;71.20
3067;DHT22;1544;48.834;9.194;2023-05-16T04:53:26;12.90;70.60
3067;DHT22;1544;48.834;9.194;2023-05-16T04:56:03;12.90;70.10
3067;DHT22;1544;48.834;9.194;2023-05-16T04:58:40;13.00;69.30
3067;DHT22;1544;48.834;9.194;2023-05-16T05:01:17;13.00;69.20
3067;DHT22;1544;48.834;9.194;2023-05-16T05:03:53;13.10;68.80
3067;DHT22;1544;48.834;9.194;2023-05-16T05:06:29;13.20;68.70
3067;DHT22;1544;48.834;9.194;2023-05-16T05:09:06;13.30;67.80
3067;DHT22;1544;48.834;9.194;2023-05-16T05:11:42;13.30;67.30
3067;DHT22;1544;48.834;9.194;2023-05-16T05:14:17;13.30;67.30
3067;DHT22;1544;48.834;9.194;2023-05-16T05:16:53;13.30;66.90
3067;DHT22;1544;48.834;9.194;2023-05-16T05:19:30;13.30;66.80
3067;DHT22;1544;48.834;9.194;2023-05-16T05:22:06;13.40;67.00
3067;DHT22;1544;48.834;9.194;2023-05-16T05:24:41;13.40;67.50
3067;DHT22;1544;48.834;9.194;2023-05-16T05:27:17;13.50;67.20
3067;DHT22;1544;48.834;9.194;2023-05-16T05:29:53;13.50;66.70
3067;DHT22;1544;48.834;9.194;2023-05-16T05:32:29;13.50;65.90
3067;DHT22;1544;48.834;9.194;2023-05-16T05:35:06;13.60;64.80
3067;DHT22;1544;48.834;9.194;2023-05-16T05:37:42;13.60;63.90
3067;DHT22;1544;48.834;9.194;2023-05-16T05:40:18;13.60;63.90
3067;DHT22;1544;48.834;9.194;2023-05-16T05:42:54;13.70;63.00
3067;DHT22;1544;48.834;9.194;2023-05-16T05:45:30;13.70;62.80
3067;DHT22;1544;48.834;9.194;2023-05-16T05:48:06;13.70;62.10
3067;DHT22;1544;48.834;9.194;2023-05-16T05:50:42;13.70;62.30
3067;DHT22;1544;48.834;9.194;2023-05-16T05:53:18;13.80;63.10
3067;DHT22;1544;48.834;9.194;2023-05-16T05:55:54;13.80;62.40
3067;DHT22;1544;48.834;9.194;2023-05-16T05:58:30;13.90;62.10
3067;DHT22;1544;48.834;9.194;2023-05-16T06:01:06;13.90;61.10
3067;DHT22;1544;48.834;9.194;2023-05-16T06:03:42;13.90;59.90
3067;DHT22;1544;48.834;9.194;2023-05-16T06:06:18;14.00;59.60
3067;DHT22;1544;48.834;9.194;2023-05-16T06:08:54;14.00;59.70
3067;DHT22;1544;48.834;9.194;2023-05-16T06:11:30;14.00;59.50
3067;DHT22;1544;48.834;9.194;2023-05-16T06:14:06;14.00;59.00
3067;DHT22;1544;48.834;9.194;2023-05-16T06:16:42;14.10;58.40
3067;DHT22;1544;48.834;9.194;2023-05-16T06:19:18;14.10;57.10
3067;DHT22;1544;48.834;9.194;2023-05-16T06:21:54;14.10;56.30
3067;DHT22;1544;48.834;9.194;2023-05-16T06:24:30;14.10;56.40
3067;DHT22;1544;48.834;9.194;2023-05-16T06:27:07;14.20;55.60
3067;DHT22;1544;48.834;9.194;2023-05-16T06:29:43;14.30;54.90
3067;DHT22;1544;48.834;9.194;2023-05-16T06:32:19;14.40;54.90
3067;DHT22;1544;48.834;9.194;2023-05-16T06:34:55;14.50;54.50
3067;DHT22;1544;48.834;9.194;2023-05-16T06:37:31;14.50;53.10
3067;DHT22;1544;48.834;9.194;2023-05-16T06:40:07;14.70;52.40
3067;DHT22;1544;48.834;9.194;2023-05-16T06:42:44;14.70;51.70
3067;DHT22;1544;48.834;9.194;2023-05-16T06:45:20;14.60;50.10
3067;DHT22;1544;48.834;9.194;2023-05-16T06:47:56;14.70;50.00
3067;DHT22;1544;48.834;9.194;2023-05-16T06:50:32;14.60;50.00
3067;DHT22;1544;48.834;9.194;2023-05-16T06:53:09;14.50;50.50
3067;DHT22;1544;48.834;9.194;2023-05-16T06:55:46;14.50;50.40
3067;DHT22;1544;48.834;9.194;2023-05-16T06:58:23;14.40;50.50
3067;DHT22;1544;48.834;9.194;2023-05-16T07:00:59;14.30;50.50
3067;DHT22;1544;48.834;9.194;2023-05-16T07:03:35;14.30;51.30
3067;DHT22;1544;48.834;9.194;2023-05-16T07:06:11;14.20;52.10
3067;DHT22;1544;48.834;9.194;2023-05-16T07:08:47;14.30;52.00
3067;DHT22;1544;48.834;9.194;2023-05-16T07:11:23;14.30;51.80
3067;DHT22;1544;48.834;9.194;2023-05-16T07:13:59;14.20;51.50
3067;DHT22;1544;48.834;9.194;2023-05-16T07:16:35;14.20;50.60
3067;DHT22;1544;48.834;9.194;2023-05-16T07:19:11;14.20;49.00
3067;DHT22;1544;48.834;9.194;2023-05-16T07:21:47;14.20;48.60
3067;DHT22;1544;48.834;9.194;2023-05-16T07:24:24;14.20;49.00
3067;DHT22;1544;48.834;9.194;2023-05-16T07:27:00;14.10;49.40
3067;DHT22;1544;48.834;9.194;2023-05-16T07:29:36;14.00;49.40
3067;DHT22;1544;48.834;9.194;2023-05-16T07:32:12;14.00;50.10
3067;DHT22;1544;48.834;9.194;2023-05-16T07:34:48;14.10;49.60
3067;DHT22;1544;48.834;9.194;2023-05-16T07:37:24;14.20;48.60
3067;DHT22;1544;48.834;9.194;2023-05-16T07:40:01;14.30;48.10
3067;DHT22;1544;48.834;9.194;2023-05-16T07:42:38;14.40;47.50
3067;DHT22;1544;48.834;9.194;2023-05-16T07:45:14;14.70;47.20
3067;DHT22;1544;48.834;9.194;2023-05-16T07:47:50;14.80;45.60
3067;DHT22;1544;48.834;9.194;2023-05-16T07:50:26;15.00;44.30
3067;DHT22;1544;48.834;9.194;2023-05-16T07:53:02;15.10;43.40
3067;DHT22;1544;48.834;9.194;2023-05-16T07:55:38;15.30;42.90
3067;DHT22;1544;48.834;9.194;2023-05-16T07:58:14;15.30;42.80
3067;DHT22;1544;48.834;9.194;2023-05-16T08:00:50;15.50;42.20
3067;DHT22;1544;48.834;9.194;2023-05-16T08:03:26;15.40;41.60
3067;DHT22;1544;48.834;9.194;2023-05-16T08:06:02;15.50;41.30
3067;DHT22;1544;48.834;9.194;2023-05-16T08:08:38;15.50;40.60
3067;DHT22;1544;48.834;9.194;2023-05-16T08:11:14;15.40;40.60
3067;DHT22;1544;48.834;9.194;2023-05-16T08:13:50;15.40;40.80
3067;DHT22;1544;48.834;9.194;2023-05-16T08:16:26;15.40;40.90
3067;DHT22;1544;48.834;9.194;2023-05-16T08:19:02;15.30;40.90
3067;DHT22;1544;48.834;9.194;2023-05-16T08:21:38;15.20;40.50
3067;DHT22;1544;48.834;9.194;2023-05-16T08:24:15;15.20;40.70
3067;DHT22;1544;48.834;9.194;2023-05-16T08:26:52;15.10;40.80
3067;DHT22;1544;48.834;9.194;2023-05-16T08:29:28;15.00;40.70
3067;DHT22;1544;48.834;9.194;2023-05-16T08:32:07;14.90;41.00
3067;DHT22;1544;48.834;9.194;2023-05-16T08:34:44;14.80;41.40
3067;DHT22;1544;48.834;9.194;2023-05-16T08:37:20;14.70;41.80
3067;DHT22;1544;48.834;9.194;2023-05-16T08:39:57;14.70;42.40
3067;DHT22;1544;48.834;9.194;2023-05-16T08:42:33;14.70;42.60
3067;DHT22;1544;48.834;9.194;2023-05-16T08:45:10;14.60;42.70
3067;DHT22;1544;48.834;9.194;2023-05-16T08:47:49;14.60;43.00
3067;DHT22;1544;48.834;9.194;2023-05-16T08:50:30;14.60;42.80
3067;DHT22;1544;48.834;9.194;2023-05-16T08:53:07;14.60;43.30
3067;DHT22;1544;48.834;9.194;2023-05-16T08:55:45;14.60;43.50
3067;DHT22;1544;48.834;9.194;2023-05-16T08:58:23;14.50;43.90
3067;DHT22;1544;48.834;9.194;2023-05-16T09:01:00;14.50;44.50
3067;DHT22;1544;48.834;9.194;2023-05-16T09:03:39;14.40;44.90
3067;DHT22;1544;48.834;9.194;2023-05-16T09:06:16;14.50;45.10
3067;DHT22;1544;48.834;9.194;2023-05-16T09:08:53;14.50;45.20
3067;DHT22;1544;48.834;9.194;2023-05-16T09:11:29;14.50;45.40
3067;DHT22;1544;48.834;9.194;2023-05-16T09:14:05;14.60;45.00
3067;DHT22;1544;48.834;9.194;2023-05-16T09:16:41;14.50;44.70
3067;DHT22;1544;48.834;9.194;2023-05-16T09:19:17;14.40;45.20
3067;DHT22;1544;48.834;9.194;2023-05-16T09:21:53;14.30;45.70
3067;DHT22;1544;48.834;9.194;2023-05-16T09:24:29;14.40;46.20
3067;DHT22;1544;48.834;9.194;2023-05-16T09:27:09;14.50;46.20
3067;DHT22;1544;48.834;9.194;2023-05-16T09:29:50;14.50;46.00
3067;DHT22;1544;48.834;9.194;2023-05-16T09:32:26;14.60;45.80
3067;DHT22;1544;48.834;9.194;2023-05-16T09:35:02;14.70;45.90
3067;DHT22;1544;48.834;9.194;2023-05-16T09:37:43;14.80;45.40
3067;DHT22;1544;48.834;9.194;2023-05-16T09:40:23;15.10;45.20
3067;DHT22;1544;48.834;9.194;2023-05-16T09:43:03;15.40;44.70
3067;DHT22;1544;48.834;9.194;2023-05-16T09:45:45;15.60;43.70
3067;DHT22;1544;48.834;9.194;2023-05-16T09:48:22;15.80;43.20
3067;DHT22;1544;48.834;9.194;2023-05-16T09:51:00;15.90;42.20
3067;DHT22;1544;48.834;9.194;2023-05-16T09:53:40;15.90;42.10
3067;DHT22;1544;48.834;9.194;2023-05-16T09:56:16;15.80;42.00
3067;DHT22;1544;48.834;9.194;2023-05-16T09:58:53;15.70;42.00
3067;DHT22;1544;48.834;9.194;2023-05-16T10:01:29;15.70;42.20
3067;DHT22;1544;48.834;9.194;2023-05-16T10:04:05;15.70;42.50
3067;DHT22;1544;48.834;9.194;2023-05-16T10:06:42;15.80;42.80
3067;DHT22;1544;48.834;9.194;2023-05-16T10:09:20;16.00;42.50
3067;DHT22;1544;48.834;9.194;2023-05-16T10:11:58;16.40;42.20
3067;DHT22;1544;48.834;9.194;2023-05-16T10:14:40;16.60;41.50
3067;DHT22;1544;48.834;9.194;2023-05-16T10:17:17;16.90;41.30
3067;DHT22;1544;48.834;9.194;2023-05-16T10:19:53;17.10;40.30
3067;DHT22;1544;48.834;9.194;2023-05-16T10:22:32;17.40;39.90
3067;DHT22;1544;48.834;9.194;2023-05-16T10:28:02;17.80;38.50
3067;DHT22;1544;48.834;9.194;2023-05-16T10:30:45;18.00;38.30
3067;DHT22;1544;48.834;9.194;2023-05-16T10:33:21;18.10;37.70
3067;DHT22;1544;48.834;9.194;2023-05-16T10:35:57;18.00;37.70
3067;DHT22;1544;48.834;9.194;2023-05-16T10:38:33;18.00;38.10
3067;DHT22;1544;48.834;9.194;2023-05-16T10:41:10;17.90;37.90
3067;DHT22;1544;48.834;9.194;2023-05-16T10:43:55;17.70;38.00
3067;DHT22;1544;48.834;9.194;2023-05-16T10:46:32;17.50;38.00
3067;DHT22;1544;48.834;9.194;2023-05-16T10:49:25;17.30;37.90
3067;DHT22;1544;48.834;9.194;2023-05-16T10:52:10;17.10;38.00
3067;DHT22;1544;48.834;9.194;2023-05-16T10:54:51;16.80;38.20
3067;DHT22;1544;48.834;9.194;2023-05-16T10:57:27;16.60;38.70
3067;DHT22;1544;48.834;9.194;2023-05-16T11:00:07;16.30;39.30
3067;DHT22;1544;48.834;9.194;2023-05-16T11:02:44;16.10;40.30
3067;DHT22;1544;48.834;9.194;2023-05-16T11:05:21;15.90;41.70
3067;DHT22;1544;48.834;9.194;2023-05-16T11:08:05;15.70;44.70
3067;DHT22;1544;48.834;9.194;2023-05-16T11:10:41;15.40;47.40
3067;DHT22;1544;48.834;9.194;2023-05-16T11:13:23;15.30;49.80
3067;DHT22;1544;48.834;9.194;2023-05-16T11:16:27;15.20;51.30
3067;DHT22;1544;48.834;9.194;2023-05-16T11:19:05;15.10;49.10
3067;DHT22;1544;48.834;9.194;2023-05-16T11:25:07;14.70;48.80
3067;DHT22;1544;48.834;9.194;2023-05-16T11:27:46;14.60;49.90
3067;DHT22;1544;48.834;9.194;2023-05-16T11:30:22;14.60;50.60
3067;DHT22;1544;48.834;9.194;2023-05-16T11:32:58;14.50;52.00
3067;DHT22;1544;48.834;9.194;2023-05-16T11:35:34;14.60;51.70
3067;DHT22;1544;48.834;9.194;2023-05-16T11:38:13;14.50;53.50
3067;DHT22;1544;48.834;9.194;2023-05-16T11:40:51;14.60;53.30
3067;DHT22;1544;48.834;9.194;2023-05-16T11:43:27;14.50;52.90
3067;DHT22;1544;48.834;9.194;2023-05-16T11:46:03;14.60;53.00
3067;DHT22;1544;48.834;9.194;2023-05-16T11:48:39;14.60;52.80
3067;DHT22;1544;48.834;9.194;2023-05-16T11:51:19;14.70;52.40
3067;DHT22;1544;48.834;9.194;2023-05-16T11:53:55;14.70;50.20
3067;DHT22;1544;48.834;9.194;2023-05-16T11:56:34;14.80;49.00
3067;DHT22;1544;48.834;9.194;2023-05-16T11:59:10;14.80;48.40
3067;DHT22;1544;48.834;9.194;2023-05-16T12:01:47;14.80;47.40
3067;DHT22;1544;48.834;9.194;2023-05-16T12:04:23;14.80;45.30
3067;DHT22;1544;48.834;9.194;2023-05-16T12:07:00;14.80;46.10
3067;DHT22;1544;48.834;9.194;2023-05-16T12:09:36;14.80;46.00
3067;DHT22;1544;48.834;9.194;2023-05-16T12:12:12;14.80;45.30
3067;DHT22;1544;48.834;9.194;2023-05-16T12:14:49;14.90;44.90
3067;DHT22;1544;48.834;9.194;2023-05-16T12:17:26;14.90;44.60
3067;DHT22;1544;48.834;9.194;2023-05-16T12:20:04;15.10;45.00
3067;DHT22;1544;48.834;9.194;2023-05-16T12:22:44;15.10;43.90
3067;DHT22;1544;48.834;9.194;2023-05-16T12:25:28;15.20;43.30
3067;DHT22;1544;48.834;9.194;2023-05-16T12:28:06;15.10;42.40
3067;DHT22;1544;48.834;9.194;2023-05-16T12:30:43;15.30;42.80
3067;DHT22;1544;48.834;9.194;2023-05-16T12:33:21;15.40;42.50
3067;DHT22;1544;48.834;9.194;2023-05-16T12:35:57;15.50;42.20
3067;DHT22;1544;48.834;9.194;2023-05-16T12:38:36;15.70;42.10
3067;DHT22;1544;48.834;9.194;2023-05-16T12:41:17;15.90;41.20
3067;DHT22;1544;48.834;9.194;2023-05-16T12:44:14;16.00;40.80
3067;DHT22;1544;48.834;9.194;2023-05-16T12:46:52;16.10;40.10
3067;DHT22;1544;48.834;9.194;2023-05-16T12:49:32;16.10;39.90
3067;DHT22;1544;48.834;9.194;2023-05-16T12:52:16;15.90;40.10
3067;DHT22;1544;48.834;9.194;2023-05-16T12:54:54;15.80;39.70
3067;DHT22;1544;48.834;9.194;2023-05-16T12:57:30;15.60;39.60
3067;DHT22;1544;48.834;9.194;2023-05-16T13:00:12;15.50;39.60
3067;DHT22;1544;48.834;9.194;2023-05-16T13:02:53;15.30;39.20
3067;DHT22;1544;48.834;9.194;2023-05-16T13:05:29;15.20;39.40
3067;DHT22;1544;48.834;9.194;2023-05-16T13:08:05;15.00;39.20
3067;DHT22;1544;48.834;9.194;2023-05-16T13:10:42;14.80;39.70
3067;DHT22;1544;48.834;9.194;2023-05-16T13:13:18;14.70;40.10
3067;DHT22;1544;48.834;9.194;2023-05-16T13:16:10;14.60;40.10
3067;DHT22;1544;48.834;9.194;2023-05-16T13:18:46;14.60;39.90
3067;DHT22;1544;48.834;9.194;2023-05-16T13:21:22;14.50;39.70
3067;DHT22;1544;48.834;9.194;2023-05-16T13:23:58;14.40;39.80
3067;DHT22;1544;48.834;9.194;2023-05-16T13:26:34;14.30;40.20
3067;DHT22;1544;48.834;9.194;2023-05-16T13:29:10;14.30;40.30
3067;DHT22;1544;48.834;9.194;2023-05-16T13:31:46;14.20;40.30
3067;DHT22;1544;48.834;9.194;2023-05-16T13:34:22;14.20;40.40
3067;DHT22;1544;48.834;9.194;2023-05-16T13:36:58;14.20;40.60
3067;DHT22;1544;48.834;9.194;2023-05-16T13:39:34;14.20;40.40
3067;DHT22;1544;48.834;9.194;2023-05-16T13:42:10;14.30;40.50
3067;DHT22;1544;48.834;9.194;2023-05-16T13:44:47;14.30;40.30
3067;DHT22;1544;48.834;9.194;2023-05-16T13:47:23;14.30;40.30
3067;DHT22;1544;48.834;9.194;2023-05-16T13:49:59;14.40;40.70
3067;DHT22;1544;48.834;9.194;2023-05-16T13:52:39;14.50;40.10
3067;DHT22;1544;48.834;9.194;2023-05-16T13:55:15;14.40;39.50
3067;DHT22;1544;48.834;9.194;2023-05-16T13:57:51;14.30;40.10
3067;DHT22;1544;48.834;9.194;2023-05-16T14:00:28;14.20;39.90
3067;DHT22;1544;48.834;9.194;2023-05-16T14:03:18;14.20;39.80
3067;DHT22;1544;48.834;9.194;2023-05-16T14:05:55;14.30;39.90
3067;DHT22;1544;48.834;9.194;2023-05-16T14:08:31;14.20;39.80
3067;DHT22;1544;48.834;9.194;2023-05-16T14:11:07;14.20;39.80
3067;DHT22;1544;48.834;9.194;2023-05-16T14:13:42;14.20;39.90
3067;DHT22;1544;48.834;9.194;2023-05-16T14:16:19;14.30;40.00
3067;DHT22;1544;48.834;9.194;2023-05-16T14:18:55;14.40;40.30
3067;DHT22;1544;48.834;9.194;2023-05-16T14:21:31;14.40;40.10
3067;DHT22;1544;48.834;9.194;2023-05-16T14:24:08;14.40;40.00
3067;DHT22;1544;48.834;9.194;2023-05-16T14:26:45;14.40;40.00
3067;DHT22;1544;48.834;9.194;2023-05-16T14:29:21;14.40;39.80
3067;DHT22;1544;48.834;9.194;2023-05-16T14:31:57;14.50;39.10
3067;DHT22;1544;48.834;9.194;2023-05-16T14:34:33;14.40;39.00
3067;DHT22;1544;48.834;9.194;2023-05-16T14:37:09;14.50;38.60
3067;DHT22;1544;48.834;9.194;2023-05-16T14:39:46;14.50;38.30
3067;DHT22;1544;48.834;9.194;2023-05-16T14:42:24;14.50;37.80
3067;DHT22;1544;48.834;9.194;2023-05-16T14:45:00;14.60;38.10
3067;DHT22;1544;48.834;9.194;2023-05-16T14:47:36;14.70;37.90
3067;DHT22;1544;48.834;9.194;2023-05-16T14:50:13;14.80;37.50
3067;DHT22;1544;48.834;9.194;2023-05-16T14:52:48;14.90;37.10
3067;DHT22;1544;48.834;9.194;2023-05-16T14:55:24;15.00;36.70
3067;DHT22;1544;48.834;9.194;2023-05-16T14:58:01;15.00;36.00
3067;DHT22;1544;48.834;9.194;2023-05-16T15:00:38;15.10;35.70
3067;DHT22;1544;48.834;9.194;2023-05-16T15:03:18;15.10;35.40
3067;DHT22;1544;48.834;9.194;2023-05-16T15:05:54;15.20;35.00
3067;DHT22;1544;48.834;9.194;2023-05-16T15:08:33;15.20;35.10
3067;DHT22;1544;48.834;9.194;2023-05-16T15:11:09;15.20;34.70
3067;DHT22;1544;48.834;9.194;2023-05-16T15:13:45;15.30;34.70
3067;DHT22;1544;48.834;9.194;2023-05-16T15:16:23;15.40;34.50
3067;DHT22;1544;48.834;9.194;2023-05-16T15:18:59;15.50;34.20
3067;DHT22;1544;48.834;9.194;2023-05-16T15:21:35;15.50;34.40
3067;DHT22;1544;48.834;9.194;2023-05-16T15:24:11;15.50;34.10
3067;DHT22;1544;48.834;9.194;2023-05-16T15:26:48;15.50;34.20
3067;DHT22;1544;48.834;9.194;2023-05-16T15:29:24;15.60;34.20
3067;DHT22;1544;48.834;9.194;2023-05-16T15:32:04;15.60;33.80
3067;DHT22;1544;48.834;9.194;2023-05-16T15:34:41;15.60;34.00
3067;DHT22;1544;48.834;9.194;2023-05-16T15:37:17;15.70;34.10
3067;DHT22;1544;48.834;9.194;2023-05-16T15:39:53;15.80;34.20
3067;DHT22;1544;48.834;9.194;2023-05-16T15:42:29;16.00;34.10
3067;DHT22;1544;48.834;9.194;2023-05-16T15:45:06;16.10;33.70
3067;DHT22;1544;48.834;9.194;2023-05-16T15:47:43;16.10;33.60
3067;DHT22;1544;48.834;9.194;2023-05-16T15:50:19;16.10;33.50
3067;DHT22;1544;48.834;9.194;2023-05-16T15:52:56;16.00;33.60
3067;DHT22;1544;48.834;9.194;2023-05-16T15:55:32;16.00;33.60
3067;DHT22;1544;48.834;9.194;2023-05-16T15:58:08;15.80;33.50
3067;DHT22;1544;48.834;9.194;2023-05-16T16:00:44;15.70;33.50
3067;DHT22;1544;48.834;9.194;2023-05-16T16:03:20;15.60;33.10
3067;DHT22;1544;48.834;9.194;2023-05-16T16:05:57;15.40;33.00
3067;DHT22;1544;48.834;9.194;2023-05-16T16:08:33;15.20;33.30
3067;DHT22;1544;48.834;9.194;2023-05-16T16:11:09;15.20;32.70
3067;DHT22;1544;48.834;9.194;2023-05-16T16:13:45;15.10;32.80
3067;DHT22;1544;48.834;9.194;2023-05-16T16:16:21;15.10;32.80
3067;DHT22;1544;48.834;9.194;2023-05-16T16:18:57;14.90;32.80
3067;DHT22;1544;48.834;9.194;2023-05-16T16:21:33;14.90;32.90
3067;DHT22;1544;48.834;9.194;2023-05-16T16:24:09;14.80;32.70
3067;DHT22;1544;48.834;9.194;2023-05-16T16:26:45;14.80;33.00
3067;DHT22;1544;48.834;9.194;2023-05-16T16:29:21;14.80;33.00
3067;DHT22;1544;48.834;9.194;2023-05-16T16:31:57;14.90;33.00
3067;DHT22;1544;48.834;9.194;2023-05-16T16:34:33;15.10;32.60
3067;DHT22;1544;48.834;9.194;2023-05-16T16:37:09;15.20;32.30
3067;DHT22;1544;48.834;9.194;2023-05-16T16:39:46;15.20;32.00
3067;DHT22;1544;48.834;9.194;2023-05-16T16:42:22;15.30;32.10
3067;DHT22;1544;48.834;9.194;2023-05-16T16:44:59;15.40;32.20
3067;DHT22;1544;48.834;9.194;2023-05-16T16:47:35;15.50;31.90
3067;DHT22;1544;48.834;9.194;2023-05-16T16:50:14;15.70;31.80
3067;DHT22;1544;48.834;9.194;2023-05-16T16:52:50;15.60;31.30
3067;DHT22;1544;48.834;9.194;2023-05-16T16:55:26;15.50;31.10
3067;DHT22;1544;48.834;9.194;2023-05-16T16:58:02;15.60;31.40
3067;DHT22;1544;48.834;9.194;2023-05-16T17:00:39;15.60;30.90
3067;DHT22;1544;48.834;9.194;2023-05-16T17:03:15;15.50;30.80
3067;DHT22;1544;48.834;9.194;2023-05-16T17:05:51;15.50;31.10
3067;DHT22;1544;48.834;9.194;2023-05-16T17:08:28;15.40;31.00
3067;DHT22;1544;48.834;9.194;2023-05-16T17:11:03;15.50;30.80
3067;DHT22;1544;48.834;9.194;2023-05-16T17:13:40;15.50;30.80
3067;DHT22;1544;48.834;9.194;2023-05-16T17:16:17;15.50;30.70
3067;DHT22;1544;48.834;9.194;2023-05-16T17:18:54;15.50;30.70
3067;DHT22;1544;48.834;9.194;2023-05-16T17:21:30;15.50;30.70